Time;durP1;ratioP1;P1;durP2;ratioP2;P2;SDS_P1;SDS_P2;PMS_P1;PMS_P2;Temp;Humidity;BMP_temperature;BMP_pressure;BME280_temperature;BME280_humidity;BME280_pressure;Samples;Min_cycle;Max_cycle;Signal;HPM_P1;HPM_P2
2021/01/23 00:01:41;;;;;;;27.53;14.63;;;3.50;99.90;;;;;;5073549;28;37325;-75
2021/01/23 00:04:07;;;;;;;24.87;12.73;;;3.50;99.90;;;;;;5082874;28;39949;-75
2021/01/23 00:06:33;;;;;;;27.23;13.13;;;3.50;99.90;;;;;;5073793;28;36117;-76
2021/01/23 00:08:59;;;;;;;28.47;13.37;;;3.50;99.90;;;;;;5088176;28;38812;-75
2021/01/23 00:11:25;;;;;;;21.37;13.37;;;3.50;99.90;;;;;;5089266;28;39002;-75
2021/01/23 00:13:51;;;;;;;22.80;13.20;;;3.50;99.90;;;;;;5084460;28;40352;-75
2021/01/23 00:16:17;;;;;;;20.63;12.30;;;3.40;99.90;;;;;;5089202;28;37301;-75
2021/01/23 00:18:49;;;;;;;26.53;12.27;;;3.30;99.90;;;;;;5085334;28;38765;-75
2021/01/23 00:21:15;;;;;;;22.83;13.30;;;3.30;99.90;;;;;;5074951;28;39318;-75
2021/01/23 00:23:41;;;;;;;26.03;13.73;;;3.30;99.90;;;;;;5090049;28;39143;-75
2021/01/23 00:26:07;;;;;;;30.37;13.80;;;3.40;99.90;;;;;;5056567;28;38099;-74
2021/01/23 00:28:33;;;;;;;24.57;14.47;;;3.40;99.90;;;;;;5081581;28;39921;-75
2021/01/23 00:31:00;;;;;;;33.20;14.93;;;3.40;99.90;;;;;;5058395;28;38586;-75
2021/01/23 00:33:26;;;;;;;23.33;14.67;;;3.50;99.90;;;;;;5052775;28;39306;-75
2021/01/23 00:35:53;;;;;;;28.90;15.37;;;3.60;99.90;;;;;;5073945;28;38211;-75
2021/01/23 00:38:19;;;;;;;25.10;13.70;;;3.70;99.90;;;;;;5081217;28;39298;-76
2021/01/23 00:40:46;;;;;;;22.60;13.10;;;3.70;99.90;;;;;;5065729;28;40138;-75
2021/01/23 00:43:12;;;;;;;23.80;13.60;;;3.70;99.90;;;;;;5087210;28;39379;-74
2021/01/23 00:45:38;;;;;;;26.77;13.57;;;3.70;99.90;;;;;;5073926;28;38096;-75
2021/01/23 00:48:22;;;;;;;24.13;13.57;;;3.70;99.90;;;;;;5067795;28;40043;-74
2021/01/23 00:50:48;;;;;;;21.63;12.10;;;3.70;99.90;;;;;;5056049;28;39904;-75
2021/01/23 00:53:14;;;;;;;21.13;13.10;;;3.70;99.90;;;;;;5080285;28;38234;-75
2021/01/23 00:55:40;;;;;;;31.17;12.87;;;3.70;99.90;;;;;;5078213;28;37709;-75
2021/01/23 00:58:07;;;;;;;22.07;12.67;;;3.70;99.90;;;;;;5070433;28;40597;-74
2021/01/23 01:00:33;;;;;;;29.70;13.07;;;3.60;99.90;;;;;;5075192;28;38955;-75
2021/01/23 01:02:59;;;;;;;26.43;14.00;;;3.60;99.90;;;;;;5086988;27;37685;-75
2021/01/23 01:05:25;;;;;;;21.60;13.27;;;3.60;99.90;;;;;;5069207;28;38215;-74
2021/01/23 01:07:51;;;;;;;27.87;13.73;;;3.60;99.90;;;;;;5075346;28;40907;-75
2021/01/23 01:10:17;;;;;;;27.13;13.67;;;3.70;99.90;;;;;;5071738;28;39561;-75
2021/01/23 01:12:44;;;;;;;26.37;12.47;;;3.70;99.90;;;;;;5069094;28;38931;-75
2021/01/23 01:15:10;;;;;;;25.93;14.03;;;3.70;99.90;;;;;;5070388;28;38775;-75
2021/01/23 01:17:36;;;;;;;27.90;14.07;;;3.70;99.90;;;;;;5075762;28;39012;-76
2021/01/23 01:20:03;;;;;;;30.77;13.20;;;3.70;99.90;;;;;;5072916;28;39500;-75
2021/01/23 01:22:29;;;;;;;27.53;14.07;;;3.70;99.90;;;;;;5078424;28;47260;-75
2021/01/23 01:24:56;;;;;;;24.93;14.37;;;3.70;99.90;;;;;;5075703;28;37872;-75
2021/01/23 01:27:22;;;;;;;20.63;13.50;;;3.70;99.90;;;;;;5071368;28;38207;-74
2021/01/23 01:29:49;;;;;;;28.63;15.93;;;3.70;99.90;;;;;;5073400;28;38879;-75
2021/01/23 01:32:16;;;;;;;30.63;15.20;;;3.60;99.90;;;;;;5086007;28;38590;-75
2021/01/23 01:34:43;;;;;;;28.27;14.40;;;3.60;99.90;;;;;;5075348;28;37295;-75
2021/01/23 01:37:09;;;;;;;25.70;14.73;;;3.60;99.90;;;;;;5055376;28;39325;-75
2021/01/23 01:39:36;;;;;;;25.33;14.50;;;3.60;99.90;;;;;;5080833;28;38920;-76
2021/01/23 01:42:03;;;;;;;25.60;13.80;;;3.70;99.90;;;;;;5052973;28;39306;-75
2021/01/23 01:44:29;;;;;;;34.50;15.37;;;3.70;99.90;;;;;;5064735;28;38155;-76
2021/01/23 01:46:58;;;;;;;30.53;15.10;;;3.70;99.90;;;;;;5064591;28;37731;-75
2021/01/23 01:49:24;;;;;;;30.80;15.17;;;3.80;99.90;;;;;;5075353;28;40296;-76
2021/01/23 01:51:53;;;;;;;30.27;16.60;;;3.80;99.90;;;;;;5076935;28;39119;-76
2021/01/23 01:54:22;;;;;;;27.43;15.83;;;3.80;99.90;;;;;;5090456;27;38516;-75
2021/01/23 01:56:48;;;;;;;26.97;15.17;;;3.90;99.90;;;;;;5068012;28;39219;-74
2021/01/23 01:59:14;;;;;;;25.90;14.63;;;3.90;99.90;;;;;;5074380;28;40136;-75
2021/01/23 02:01:40;;;;;;;27.20;16.37;;;3.90;99.90;;;;;;5074628;28;38645;-75
2021/01/23 02:04:21;;;;;;;27.67;16.30;;;4.00;99.90;;;;;;5089393;28;38080;-75
2021/01/23 02:06:53;;;;;;;29.93;15.10;;;4.00;99.90;;;;;;5075801;28;39809;-75
2021/01/23 02:09:49;;;;;;;30.00;16.23;;;4.00;99.90;;;;;;5082636;28;38832;-75
2021/01/23 02:12:36;;;;;;;27.23;17.00;;;4.10;99.90;;;;;;5087602;28;39899;-75
2021/01/23 02:15:12;;;;;;;28.50;16.67;;;4.10;99.90;;;;;;5078184;28;36732;-75
2021/01/23 02:17:46;;;;;;;28.80;16.43;;;4.10;99.90;;;;;;5067374;28;48717;-75
2021/01/23 02:20:31;;;;;;;33.00;17.30;;;4.20;99.90;;;;;;5066138;28;37199;-75
2021/01/23 02:23:16;;;;;;;24.37;15.83;;;4.20;99.90;;;;;;5073994;28;38426;-75
2021/01/23 02:25:51;;;;;;;31.57;16.20;;;4.20;99.90;;;;;;5075766;28;46911;-75
2021/01/23 02:28:28;;;;;;;25.87;16.87;;;4.20;99.90;;;;;;5094962;28;38447;-75
2021/01/23 02:31:14;;;;;;;33.53;18.17;;;4.20;99.90;;;;;;5086433;27;37716;-75
2021/01/23 02:33:42;;;;;;;27.17;16.97;;;4.30;99.90;;;;;;5084528;28;47381;-75
2021/01/23 02:36:10;;;;;;;28.93;17.10;;;4.30;99.90;;;;;;5091630;28;38318;-75
2021/01/23 02:38:38;;;;;;;27.73;17.17;;;4.30;99.90;;;;;;5095624;28;38995;-75
2021/01/23 02:41:05;;;;;;;33.13;18.70;;;4.20;99.90;;;;;;5100078;28;40324;-76
2021/01/23 02:43:31;;;;;;;26.57;17.13;;;4.30;99.90;;;;;;5082592;28;40327;-75
2021/01/23 02:45:58;;;;;;;28.07;17.17;;;4.30;99.90;;;;;;5066746;28;37964;-75
2021/01/23 02:48:25;;;;;;;26.00;16.53;;;4.30;99.90;;;;;;5088348;28;38798;-75
2021/01/23 02:50:54;;;;;;;30.37;17.63;;;4.20;99.90;;;;;;5054762;28;39098;-75
2021/01/23 02:53:24;;;;;;;30.60;17.77;;;4.20;99.90;;;;;;5066141;28;38258;-75
2021/01/23 02:56:04;;;;;;;28.97;17.37;;;4.20;99.90;;;;;;5082435;28;37182;-74
2021/01/23 02:58:32;;;;;;;27.10;16.73;;;4.30;99.90;;;;;;5067781;28;48075;-75
2021/01/23 03:01:01;;;;;;;29.23;16.67;;;4.30;99.90;;;;;;5069449;28;39241;-75
2021/01/23 03:03:30;;;;;;;30.60;16.77;;;4.20;99.90;;;;;;5066164;28;47148;-75
2021/01/23 03:05:59;;;;;;;22.70;14.70;;;4.20;99.90;;;;;;5080777;28;38139;-75
2021/01/23 03:08:25;;;;;;;26.73;15.30;;;4.10;99.90;;;;;;5065402;28;38936;-75
2021/01/23 03:10:51;;;;;;;30.93;17.17;;;4.20;99.90;;;;;;5071875;28;40438;-75
2021/01/23 03:13:18;;;;;;;29.60;16.13;;;4.20;99.90;;;;;;5086240;28;37800;-75
2021/01/23 03:15:44;;;;;;;24.03;15.87;;;4.20;99.90;;;;;;5083245;28;35478;-75
2021/01/23 03:18:10;;;;;;;27.60;14.80;;;4.20;99.90;;;;;;5090645;28;40179;-75
2021/01/23 03:20:36;;;;;;;25.30;15.10;;;4.20;99.90;;;;;;5092717;28;40563;-75
2021/01/23 03:23:03;;;;;;;22.47;13.83;;;4.20;99.90;;;;;;5087229;28;39421;-75
2021/01/23 03:25:30;;;;;;;21.47;13.50;;;4.30;99.90;;;;;;5086323;27;35524;-75
2021/01/23 03:27:57;;;;;;;21.23;13.30;;;4.20;99.90;;;;;;5071721;28;36584;-75
2021/01/23 03:30:24;;;;;;;19.13;12.67;;;4.20;99.90;;;;;;5059362;28;20154;-75
2021/01/23 03:32:52;;;;;;;23.87;15.00;;;4.20;99.90;;;;;;5077567;28;38389;-75
2021/01/23 03:35:18;;;;;;;21.57;13.30;;;4.10;99.90;;;;;;5076216;28;37561;-75
2021/01/23 03:37:45;;;;;;;20.83;13.77;;;4.10;99.90;;;;;;5077682;28;39337;-75
2021/01/23 03:40:12;;;;;;;22.00;13.70;;;4.10;99.90;;;;;;5080603;28;39058;-75
2021/01/23 03:42:38;;;;;;;24.70;13.40;;;4.20;99.90;;;;;;5073134;28;40016;-75
2021/01/23 03:45:09;;;;;;;23.73;14.00;;;4.10;99.90;;;;;;5081626;28;39203;-74
2021/01/23 03:47:36;;;;;;;19.50;13.13;;;4.10;99.90;;;;;;5072721;28;39665;-75
2021/01/23 03:50:05;;;;;;;18.37;12.70;;;4.00;99.90;;;;;;5092795;28;38996;-75
2021/01/23 03:52:31;;;;;;;20.83;12.13;;;4.00;99.90;;;;;;5071832;28;46861;-75
2021/01/23 03:54:57;;;;;;;19.13;13.77;;;3.90;99.90;;;;;;5086765;27;37142;-75
2021/01/23 03:57:24;;;;;;;22.03;13.20;;;3.90;99.90;;;;;;5084685;28;38665;-75
2021/01/23 03:59:50;;;;;;;22.50;13.67;;;3.90;99.90;;;;;;5062065;28;37532;-75
2021/01/23 04:02:16;;;;;;;21.47;13.90;;;3.90;99.90;;;;;;5084854;28;38752;-75
2021/01/23 04:04:42;;;;;;;29.43;14.50;;;3.90;99.90;;;;;;5076650;28;36449;-75
2021/01/23 04:07:08;;;;;;;22.77;14.33;;;3.90;99.90;;;;;;5074725;28;39787;-75
2021/01/23 04:09:34;;;;;;;19.67;14.07;;;3.90;99.90;;;;;;5063927;28;38859;-75
2021/01/23 04:12:00;;;;;;;24.13;12.87;;;3.90;99.90;;;;;;5069178;28;38816;-75
2021/01/23 04:14:26;;;;;;;25.90;13.70;;;4.00;99.90;;;;;;5082372;28;47801;-75
2021/01/23 04:16:53;;;;;;;19.43;13.63;;;4.00;99.90;;;;;;5063345;28;39785;-75
2021/01/23 04:19:19;;;;;;;19.13;12.13;;;4.10;99.90;;;;;;5073527;28;41234;-75
2021/01/23 04:21:45;;;;;;;17.87;11.23;;;4.20;99.90;;;;;;5081086;28;40324;-74
2021/01/23 04:24:11;;;;;;;19.03;10.50;;;4.20;99.90;;;;;;5083426;28;38640;-75
2021/01/23 04:26:40;;;;;;;15.33;9.20;;;4.20;99.90;;;;;;5071738;28;39156;-74
2021/01/23 04:29:07;;;;;;;15.23;10.00;;;4.30;99.90;;;;;;5086766;28;39895;-75
2021/01/23 04:31:34;;;;;;;13.97;9.17;;;4.30;99.90;;;;;;5093450;28;38157;-75
2021/01/23 04:34:01;;;;;;;15.40;7.90;;;4.30;99.90;;;;;;5083361;28;38226;-75
2021/01/23 04:36:28;;;;;;;14.33;8.63;;;4.30;99.90;;;;;;5071096;28;46848;-75
2021/01/23 04:38:54;;;;;;;16.47;8.20;;;4.40;99.90;;;;;;5069725;28;37388;-75
2021/01/23 04:41:21;;;;;;;13.33;8.40;;;4.40;99.90;;;;;;5073175;28;39142;-75
2021/01/23 04:43:48;;;;;;;13.90;8.33;;;4.40;99.90;;;;;;5065334;28;37709;-76
2021/01/23 04:46:17;;;;;;;10.73;7.40;;;4.30;99.90;;;;;;5086371;28;39478;-75
2021/01/23 04:48:44;;;;;;;11.87;8.00;;;4.30;99.90;;;;;;5084170;28;38075;-75
2021/01/23 04:51:10;;;;;;;14.57;7.23;;;4.30;99.90;;;;;;5077375;28;39120;-74
2021/01/23 04:53:36;;;;;;;10.27;7.60;;;4.30;99.90;;;;;;5079558;28;37440;-75
2021/01/23 04:56:04;;;;;;;9.73;7.40;;;4.30;99.90;;;;;;5078167;28;38102;-75
2021/01/23 04:58:31;;;;;;;9.50;7.03;;;4.30;99.90;;;;;;5071671;28;39138;-75
2021/01/23 05:00:57;;;;;;;8.40;6.70;;;4.30;99.90;;;;;;5079256;28;39229;-75
2021/01/23 05:03:23;;;;;;;14.83;7.20;;;4.30;99.90;;;;;;5073748;28;38646;-75
2021/01/23 05:06:10;;;;;;;13.37;7.80;;;4.30;99.90;;;;;;5079072;28;40706;-75
2021/01/23 05:08:37;;;;;;;9.93;7.13;;;4.30;99.90;;;;;;5069538;28;46395;-75
2021/01/23 05:11:04;;;;;;;10.30;6.40;;;4.30;99.90;;;;;;5068952;28;41039;-75
2021/01/23 05:13:31;;;;;;;12.53;7.73;;;4.30;99.90;;;;;;5082705;28;37961;-75
2021/01/23 05:15:57;;;;;;;15.23;6.53;;;4.30;99.90;;;;;;5081963;28;43118;-75
2021/01/23 05:18:24;;;;;;;12.10;6.33;;;4.30;99.90;;;;;;5072327;28;39990;-75
2021/01/23 05:20:51;;;;;;;11.57;6.23;;;4.30;99.90;;;;;;5070648;28;39089;-75
2021/01/23 05:23:26;;;;;;;7.07;5.87;;;4.30;99.90;;;;;;5072058;28;35843;-75
2021/01/23 05:25:53;;;;;;;10.37;5.73;;;4.30;99.90;;;;;;5059771;28;39526;-75
2021/01/23 05:28:34;;;;;;;11.47;6.47;;;4.20;99.90;;;;;;5068267;28;38415;-75
2021/01/23 05:31:03;;;;;;;13.10;6.93;;;4.20;99.90;;;;;;5068822;28;39042;-75
2021/01/23 05:33:31;;;;;;;11.80;6.80;;;4.20;99.90;;;;;;5072937;28;49055;-75
2021/01/23 05:36:05;;;;;;;12.47;7.07;;;4.20;99.90;;;;;;5069479;28;39179;-75
2021/01/23 05:38:36;;;;;;;13.20;6.20;;;4.20;99.90;;;;;;5079642;28;47359;-75
2021/01/23 05:41:08;;;;;;;10.53;6.57;;;4.20;99.90;;;;;;5080267;28;38420;-75
2021/01/23 05:43:35;;;;;;;12.80;7.05;;;4.20;99.90;;;;;;5059082;28;37188;-75
2021/01/23 05:46:09;;;;;;;11.13;6.57;;;4.20;99.90;;;;;;5075446;28;39531;-74
2021/01/23 05:48:39;;;;;;;13.27;7.87;;;4.20;99.90;;;;;;5076438;28;47407;-75
2021/01/23 05:51:05;;;;;;;13.17;7.40;;;4.20;99.90;;;;;;5071412;28;38274;-76
2021/01/23 05:53:31;;;;;;;11.67;7.60;;;4.10;99.90;;;;;;5069846;28;36141;-75
2021/01/23 05:56:01;;;;;;;12.60;7.83;;;4.10;99.90;;;;;;5075346;28;39278;-76
2021/01/23 05:58:35;;;;;;;12.80;6.87;;;4.10;99.90;;;;;;5086622;28;48610;-75
2021/01/23 06:01:04;;;;;;;11.23;7.37;;;4.00;99.90;;;;;;5104645;28;39446;-75
2021/01/23 06:03:36;;;;;;;18.00;8.10;;;3.90;99.90;;;;;;5088207;28;37500;-75
2021/01/23 06:06:03;;;;;;;15.57;8.20;;;3.80;99.90;;;;;;5077266;28;39721;-75
2021/01/23 06:08:41;;;;;;;22.27;8.83;;;3.90;99.90;;;;;;5075181;28;39556;-75
2021/01/23 06:11:19;;;;;;;16.20;7.77;;;3.90;99.90;;;;;;5085036;28;39519;-74
2021/01/23 06:13:50;;;;;;;13.97;9.03;;;3.90;99.90;;;;;;5074570;28;38211;-74
2021/01/23 06:16:32;;;;;;;19.77;9.37;;;3.80;99.90;;;;;;5084588;28;38775;-75
2021/01/23 06:18:59;;;;;;;16.20;8.87;;;3.90;99.90;;;;;;5075710;28;38932;-75
2021/01/23 06:21:44;;;;;;;14.77;8.33;;;3.90;99.90;;;;;;5074392;28;39280;-75
2021/01/23 06:24:14;;;;;;;16.10;9.47;;;4.00;99.90;;;;;;5075755;28;37934;-75
2021/01/23 06:26:52;;;;;;;16.17;9.17;;;3.90;99.90;;;;;;5087736;28;39342;-75
2021/01/23 06:29:39;;;;;;;17.90;9.50;;;3.90;99.90;;;;;;5089726;28;39084;-75
2021/01/23 06:32:17;;;;;;;16.03;8.93;;;3.90;99.90;;;;;;5086767;28;38937;-75
2021/01/23 06:34:55;;;;;;;18.97;9.83;;;3.80;99.90;;;;;;5078442;28;36277;-75
2021/01/23 06:37:33;;;;;;;21.17;9.07;;;3.80;99.90;;;;;;5067330;28;37753;-76
2021/01/23 06:40:06;;;;;;;19.73;9.97;;;3.80;99.90;;;;;;5086602;28;39476;-75
2021/01/23 06:42:35;;;;;;;21.33;9.53;;;3.70;99.90;;;;;;5072251;28;47535;-75
2021/01/23 06:45:19;;;;;;;17.73;9.27;;;3.70;99.90;;;;;;5088987;28;40055;-75
2021/01/23 06:47:51;;;;;;;14.87;8.27;;;3.80;99.90;;;;;;5079902;28;46364;-75
2021/01/23 06:50:30;;;;;;;14.67;9.00;;;3.70;99.90;;;;;;5088416;28;39155;-75
2021/01/23 06:52:57;;;;;;;19.13;9.03;;;3.70;99.90;;;;;;5065030;28;37672;-75
2021/01/23 06:55:58;;;;;;;14.30;8.33;;;3.70;99.90;;;;;;5071696;28;37565;-75
2021/01/23 06:58:27;;;;;;;20.03;7.77;;;3.70;99.90;;;;;;5013567;28;40143;-76
2021/01/23 07:00:58;;;;;;;13.00;6.33;;;3.60;99.90;;;;;;5060958;28;37615;-75
2021/01/23 07:03:27;;;;;;;15.60;6.60;;;3.60;99.90;;;;;;5081310;28;39127;-75
2021/01/23 07:05:55;;;;;;;15.37;8.00;;;3.60;99.90;;;;;;5072040;28;36312;-75
2021/01/23 07:08:26;;;;;;;15.27;5.70;;;3.60;99.90;;;;;;5068297;28;37817;-74
2021/01/23 07:11:05;;;;;;;9.87;6.10;;;3.60;99.90;;;;;;5079955;28;39308;-74
2021/01/23 07:13:31;;;;;;;16.97;6.63;;;3.50;99.90;;;;;;5077019;28;47560;-76
2021/01/23 07:15:57;;;;;;;11.80;6.13;;;3.50;99.90;;;;;;5072072;28;36220;-75
2021/01/23 07:18:25;;;;;;;15.17;8.23;;;3.40;99.90;;;;;;5066153;28;37804;-75
2021/01/23 07:20:51;;;;;;;13.90;7.87;;;3.50;99.90;;;;;;5057419;28;37384;-75
2021/01/23 07:23:19;;;;;;;14.07;7.93;;;3.50;99.90;;;;;;5083538;28;37796;-75
2021/01/23 07:25:45;;;;;;;17.00;8.97;;;3.40;99.90;;;;;;5072365;27;36914;-76
2021/01/23 07:28:15;;;;;;;19.67;8.73;;;3.40;99.90;;;;;;5056916;28;36518;-75
2021/01/23 07:30:41;;;;;;;15.57;7.90;;;3.30;99.90;;;;;;5079537;28;38604;-75
2021/01/23 07:33:07;;;;;;;16.83;9.10;;;3.20;99.90;;;;;;5077085;28;38822;-75
2021/01/23 07:35:39;;;;;;;18.87;9.03;;;3.20;99.90;;;;;;5085853;28;34283;-75
2021/01/23 07:38:06;;;;;;;16.93;9.13;;;3.20;99.90;;;;;;5087826;28;38465;-75
2021/01/23 07:40:39;;;;;;;15.33;7.93;;;3.10;99.90;;;;;;5090760;28;38913;-75
2021/01/23 07:43:06;;;;;;;12.80;7.57;;;3.10;99.90;;;;;;5079903;28;37581;-74
2021/01/23 07:45:33;;;;;;;13.10;6.50;;;3.20;99.90;;;;;;5088137;28;36137;-75
2021/01/23 07:48:09;;;;;;;9.63;7.17;;;3.30;99.90;;;;;;5078788;28;37793;-75
2021/01/23 07:50:42;;;;;;;16.70;6.67;;;3.30;99.90;;;;;;5084717;28;47128;-76
2021/01/23 07:53:22;;;;;;;14.70;8.00;;;3.30;99.90;;;;;;5076826;28;37951;-75
2021/01/23 07:55:49;;;;;;;12.90;6.60;;;3.30;99.90;;;;;;5086046;28;38466;-75
2021/01/23 07:58:15;;;;;;;12.20;6.47;;;3.40;99.90;;;;;;5072694;28;39008;-75
2021/01/23 08:00:42;;;;;;;10.93;6.63;;;3.50;99.90;;;;;;5085730;28;39838;-75
2021/01/23 08:03:09;;;;;;;14.13;6.67;;;3.60;99.90;;;;;;5078637;28;37425;-75
2021/01/23 08:05:42;;;;;;;10.47;6.77;;;3.60;99.90;;;;;;5085516;28;38261;-75
2021/01/23 08:08:08;;;;;;;11.33;6.23;;;3.60;99.90;;;;;;5077761;28;39342;-75
2021/01/23 08:10:35;;;;;;;10.90;7.23;;;3.60;99.90;;;;;;5090862;28;39732;-76
2021/01/23 08:13:03;;;;;;;12.50;7.57;;;3.70;99.90;;;;;;5078761;28;39447;-75
2021/01/23 08:15:37;;;;;;;13.53;7.17;;;3.80;99.90;;;;;;5090670;28;37299;-75
2021/01/23 08:18:23;;;;;;;14.03;7.57;;;3.80;99.90;;;;;;5075965;28;39486;-75
2021/01/23 08:20:49;;;;;;;14.40;7.50;;;3.90;99.90;;;;;;5071244;28;39192;-75
2021/01/23 08:23:20;;;;;;;10.83;6.90;;;3.90;99.90;;;;;;5059463;28;40342;-74
2021/01/23 08:25:55;;;;;;;11.90;6.50;;;4.00;99.90;;;;;;5085752;28;37953;-75
2021/01/23 08:28:28;;;;;;;10.33;6.23;;;4.00;99.90;;;;;;5088133;28;38321;-75
2021/01/23 08:31:08;;;;;;;10.87;5.37;;;4.00;99.90;;;;;;5072956;28;38916;-75
2021/01/23 08:33:36;;;;;;;11.97;4.47;;;4.00;99.90;;;;;;5077462;28;46999;-75
2021/01/23 08:36:03;;;;;;;16.27;5.73;;;4.00;99.90;;;;;;5075291;28;37087;-75
2021/01/23 08:38:29;;;;;;;9.87;5.47;;;4.00;99.90;;;;;;5087303;28;41323;-75
2021/01/23 08:40:55;;;;;;;12.97;5.73;;;4.00;99.90;;;;;;5073844;28;40555;-75
2021/01/23 08:43:22;;;;;;;10.97;5.80;;;4.00;99.90;;;;;;5077022;28;39549;-75
2021/01/23 08:45:48;;;;;;;13.70;6.50;;;4.10;99.90;;;;;;5088075;27;37094;-76
2021/01/23 08:48:14;;;;;;;7.10;4.63;;;4.30;99.90;;;;;;5074695;28;39540;-75
2021/01/23 08:50:40;;;;;;;8.37;5.17;;;4.30;99.90;;;;;;5082911;28;39316;-73
2021/01/23 08:53:06;;;;;;;5.97;4.37;;;4.40;99.90;;;;;;5080345;28;39439;-75
2021/01/23 08:55:32;;;;;;;8.27;4.30;;;4.40;99.90;;;;;;5057830;28;36964;-75
2021/01/23 08:57:58;;;;;;;12.70;4.80;;;4.40;99.90;;;;;;5074332;28;38644;-74
2021/01/23 09:00:24;;;;;;;9.03;4.47;;;4.40;99.90;;;;;;5065701;28;39003;-74
2021/01/23 09:02:51;;;;;;;9.70;4.57;;;4.40;99.90;;;;;;5081692;28;38516;-74
2021/01/23 09:05:17;;;;;;;8.10;4.50;;;4.40;99.90;;;;;;5085131;28;36795;-75
2021/01/23 09:07:43;;;;;;;11.53;4.97;;;4.50;99.90;;;;;;5073333;28;39694;-74
2021/01/23 09:10:10;;;;;;;14.33;5.20;;;4.60;99.90;;;;;;5080978;28;37982;-75
2021/01/23 09:12:37;;;;;;;10.00;4.27;;;4.70;99.90;;;;;;5095749;28;38981;-74
2021/01/23 09:15:05;;;;;;;8.00;4.13;;;4.80;99.90;;;;;;5096789;28;37575;-75
2021/01/23 09:17:32;;;;;;;8.87;4.50;;;5.00;99.90;;;;;;5089376;28;47190;-75
2021/01/23 09:19:58;;;;;;;8.83;5.70;;;5.00;99.90;;;;;;5089555;28;38676;-75
2021/01/23 09:22:24;;;;;;;8.93;4.10;;;5.20;99.90;;;;;;5055371;28;39234;-75
2021/01/23 09:24:50;;;;;;;7.77;4.00;;;5.20;99.90;;;;;;5069299;28;37554;-75
2021/01/23 09:27:17;;;;;;;8.13;4.10;;;5.30;99.90;;;;;;5097167;28;38927;-75
2021/01/23 09:29:43;;;;;;;11.03;4.20;;;5.20;99.90;;;;;;5081153;28;39887;-75
2021/01/23 09:32:09;;;;;;;9.90;4.53;;;5.20;99.90;;;;;;5082553;28;39521;-74
2021/01/23 09:34:35;;;;;;;9.20;4.33;;;5.20;99.90;;;;;;5084434;28;38413;-74
2021/01/23 09:37:04;;;;;;;14.33;5.27;;;5.20;99.90;;;;;;5086336;28;39712;-75
2021/01/23 09:39:32;;;;;;;11.30;4.77;;;5.30;99.90;;;;;;5101827;28;39373;-76
2021/01/23 09:41:58;;;;;;;7.00;4.43;;;5.20;99.90;;;;;;5093969;27;36969;-76
2021/01/23 09:44:24;;;;;;;7.37;4.20;;;5.10;99.90;;;;;;5099017;28;37024;-76
2021/01/23 09:46:51;;;;;;;8.70;4.03;;;5.20;99.90;;;;;;5100999;28;39966;-76
2021/01/23 09:49:17;;;;;;;5.70;3.80;;;5.30;99.90;;;;;;5089282;28;39371;-76
2021/01/23 09:51:43;;;;;;;10.73;4.00;;;5.40;99.90;;;;;;5083493;28;38549;-75
2021/01/23 09:54:10;;;;;;;10.03;3.90;;;5.40;99.90;;;;;;5086071;28;35791;-76
2021/01/23 09:56:36;;;;;;;6.80;3.63;;;5.60;99.90;;;;;;5102174;28;40393;-76
2021/01/23 09:59:02;;;;;;;9.03;3.97;;;5.60;99.90;;;;;;5089335;28;38621;-74
2021/01/23 10:01:28;;;;;;;8.60;3.40;;;5.70;99.90;;;;;;5084562;28;38359;-76
2021/01/23 10:03:56;;;;;;;10.83;3.97;;;5.80;99.90;;;;;;5084159;28;37669;-76
2021/01/23 10:06:22;;;;;;;10.47;4.37;;;5.80;99.90;;;;;;5073718;28;37598;-76
2021/01/23 10:08:48;;;;;;;8.17;3.63;;;5.80;99.90;;;;;;5088301;28;37771;-76
2021/01/23 10:11:14;;;;;;;9.80;3.50;;;5.80;99.90;;;;;;5103651;28;38047;-76
2021/01/23 10:13:40;;;;;;;9.50;4.40;;;5.70;99.90;;;;;;5112461;28;37652;-76
2021/01/23 10:16:06;;;;;;;6.67;3.70;;;5.70;99.90;;;;;;5117129;28;39222;-76
2021/01/23 10:18:35;;;;;;;9.63;4.27;;;5.80;99.90;;;;;;5099335;28;36793;-76
2021/01/23 10:21:08;;;;;;;7.43;4.27;;;5.90;99.90;;;;;;5082041;28;38838;-76
2021/01/23 10:23:34;;;;;;;7.00;4.10;;;5.90;99.90;;;;;;5099701;28;37398;-76
2021/01/23 10:26:00;;;;;;;13.53;5.03;;;6.00;99.90;;;;;;5089118;28;37270;-76
2021/01/23 10:28:27;;;;;;;7.97;4.43;;;6.10;99.90;;;;;;5097271;28;38387;-76
2021/01/23 10:30:53;;;;;;;9.23;5.10;;;6.00;99.90;;;;;;5103185;27;38839;-76
2021/01/23 10:33:19;;;;;;;11.63;4.90;;;5.90;99.90;;;;;;5100966;28;37455;-76
2021/01/23 10:35:45;;;;;;;11.47;4.40;;;5.90;99.90;;;;;;5100161;28;37432;-76
2021/01/23 10:38:12;;;;;;;9.93;5.00;;;6.00;99.90;;;;;;5088121;28;39429;-76
2021/01/23 10:40:38;;;;;;;11.47;5.47;;;6.10;99.90;;;;;;5098157;28;38809;-76
2021/01/23 10:43:04;;;;;;;8.80;5.20;;;5.90;99.90;;;;;;5095999;28;38334;-76
2021/01/23 10:45:30;;;;;;;7.80;5.30;;;5.70;99.90;;;;;;5089155;28;39716;-76
2021/01/23 10:47:56;;;;;;;8.17;4.60;;;5.50;99.90;;;;;;5081302;28;39112;-76
2021/01/23 10:50:22;;;;;;;15.03;5.73;;;5.30;99.90;;;;;;5085531;28;37183;-76
2021/01/23 10:52:49;;;;;;;11.80;6.07;;;5.30;99.90;;;;;;5093169;28;37838;-76
2021/01/23 10:55:15;;;;;;;10.23;5.93;;;5.30;99.90;;;;;;5080643;28;39328;-76
2021/01/23 10:57:41;;;;;;;14.20;5.57;;;5.30;99.90;;;;;;5074415;28;40571;-76
2021/01/23 11:00:08;;;;;;;8.40;5.63;;;5.20;99.90;;;;;;5086902;28;38977;-77
2021/01/23 11:02:41;;;;;;;11.70;5.70;;;5.20;99.90;;;;;;5104638;28;37016;-76
2021/01/23 11:05:10;;;;;;;8.82;5.70;;;5.20;99.90;;;;;;5094346;28;39676;-76
2021/01/23 11:07:36;;;;;;;13.10;5.73;;;5.20;99.90;;;;;;5094529;28;38730;-76
2021/01/23 11:10:04;;;;;;;8.27;5.80;;;5.10;99.90;;;;;;5084116;28;38317;-76
2021/01/23 11:12:30;;;;;;;8.70;5.90;;;5.10;99.90;;;;;;5102329;28;48173;-76
2021/01/23 11:14:56;;;;;;;12.43;6.40;;;5.20;99.90;;;;;;5084713;28;39409;-76
2021/01/23 11:17:22;;;;;;;7.83;4.93;;;5.20;99.90;;;;;;5094629;27;39861;-76
2021/01/23 11:19:49;;;;;;;6.63;5.07;;;5.30;99.90;;;;;;5098621;28;37362;-77
2021/01/23 11:22:15;;;;;;;11.73;5.33;;;5.50;99.90;;;;;;5104899;28;35704;-76
2021/01/23 11:24:41;;;;;;;9.77;5.07;;;5.60;99.90;;;;;;5098947;28;39634;-77
2021/01/23 11:27:07;;;;;;;9.47;5.80;;;5.70;99.90;;;;;;5093702;28;38770;-77
2021/01/23 11:29:34;;;;;;;11.13;5.97;;;5.60;99.90;;;;;;5087581;27;37201;-76
2021/01/23 11:32:01;;;;;;;10.60;5.90;;;5.40;99.90;;;;;;5087151;28;37154;-77
2021/01/23 11:34:27;;;;;;;8.67;6.43;;;5.40;99.90;;;;;;5087692;28;48625;-77
2021/01/23 11:36:53;;;;;;;11.27;6.13;;;5.40;99.90;;;;;;5092574;28;39916;-76
2021/01/23 11:39:19;;;;;;;10.10;6.60;;;5.40;99.90;;;;;;5087351;28;39378;-76
2021/01/23 11:41:46;;;;;;;18.37;6.93;;;5.30;99.90;;;;;;5094363;28;36826;-77
2021/01/23 11:44:12;;;;;;;11.13;6.20;;;5.40;99.90;;;;;;5099376;28;42396;-76
2021/01/23 11:46:38;;;;;;;12.17;7.57;;;5.30;99.90;;;;;;5068167;28;38372;-77
2021/01/23 11:49:04;;;;;;;11.47;6.77;;;5.30;99.90;;;;;;5061102;28;39958;-76
2021/01/23 11:51:31;;;;;;;12.27;7.37;;;5.30;99.90;;;;;;5075399;28;37813;-76
2021/01/23 11:53:58;;;;;;;10.37;6.63;;;5.30;99.90;;;;;;5083932;28;37732;-77
2021/01/23 11:56:25;;;;;;;9.37;6.27;;;5.20;99.90;;;;;;5066743;28;39070;-77
2021/01/23 11:58:51;;;;;;;16.83;7.37;;;5.20;99.90;;;;;;5100468;28;38733;-76
2021/01/23 12:01:17;;;;;;;12.20;7.33;;;5.20;99.90;;;;;;5107418;28;38610;-76
2021/01/23 12:03:44;;;;;;;12.43;6.87;;;5.20;99.90;;;;;;5093456;27;39787;-77
2021/01/23 12:06:10;;;;;;;13.07;6.70;;;5.30;99.90;;;;;;5084609;28;39663;-76
2021/01/23 12:08:36;;;;;;;12.87;6.43;;;5.40;99.90;;;;;;5107742;28;39409;-76
2021/01/23 12:11:02;;;;;;;12.87;7.00;;;5.40;99.90;;;;;;5102344;28;37195;-77
2021/01/23 12:13:28;;;;;;;14.67;7.20;;;5.50;99.90;;;;;;5076273;28;41059;-76
2021/01/23 12:15:55;;;;;;;12.30;6.33;;;5.70;99.90;;;;;;5100729;28;38962;-77
2021/01/23 12:18:21;;;;;;;9.97;5.87;;;5.80;99.90;;;;;;5092836;28;38850;-77
2021/01/23 12:20:48;;;;;;;13.23;6.10;;;5.70;99.90;;;;;;5087855;28;36956;-75
2021/01/23 12:23:14;;;;;;;11.53;7.03;;;5.70;99.90;;;;;;5101095;28;39892;-75
2021/01/23 12:25:40;;;;;;;14.43;6.67;;;5.60;99.90;;;;;;5074737;28;40137;-76
2021/01/23 12:28:06;;;;;;;15.73;7.10;;;5.50;99.90;;;;;;5079385;27;38983;-75
2021/01/23 12:30:32;;;;;;;13.37;6.93;;;5.40;99.90;;;;;;5095588;28;36543;-76
2021/01/23 12:32:58;;;;;;;15.93;7.97;;;5.30;99.90;;;;;;5099424;28;39151;-74
2021/01/23 12:35:25;;;;;;;13.53;8.13;;;5.30;99.90;;;;;;5085527;28;38632;-75
2021/01/23 12:37:57;;;;;;;13.97;9.60;;;5.30;99.90;;;;;;5076913;28;38736;-75
2021/01/23 12:40:23;;;;;;;11.65;8.18;;;5.30;99.90;;;;;;5074911;28;37025;-75
2021/01/23 12:42:49;;;;;;;17.17;9.67;;;5.40;99.90;;;;;;5102327;28;38193;-76
2021/01/23 12:45:16;;;;;;;12.10;9.10;;;5.40;99.90;;;;;;5076532;28;38728;-76
2021/01/23 12:47:42;;;;;;;16.30;10.27;;;5.30;99.90;;;;;;5087619;28;38075;-75
2021/01/23 12:50:08;;;;;;;17.37;10.33;;;5.30;99.90;;;;;;5071310;28;37728;-75
2021/01/23 12:52:35;;;;;;;15.37;10.07;;;5.30;99.90;;;;;;5080808;27;39045;-76